createdAt,value
2018-02-02T00:00:54.002Z,63.23
2018-02-02T00:03:22.512Z,61.80
2018-02-02T00:05:51.010Z,60.83
2018-02-02T00:08:19.505Z,63.40
2018-02-02T00:10:48.022Z,63.60
2018-02-02T00:13:16.481Z,64.30
2018-02-02T00:15:44.967Z,62.23
2018-02-02T00:18:13.469Z,66.53
2018-02-02T00:20:41.974Z,68.67
2018-02-02T00:23:10.478Z,66.47
2018-02-02T00:25:39.036Z,65.60
2018-02-02T00:28:07.503Z,64.37
2018-02-02T00:30:36.012Z,65.57
2018-02-02T00:33:04.474Z,64.97
2018-02-02T00:35:33.009Z,62.97
2018-02-02T00:38:01.480Z,61.80
2018-02-02T00:40:29.983Z,60.83
2018-02-02T00:42:58.442Z,60.33
2018-02-02T00:45:26.945Z,61.97
2018-02-02T00:47:55.438Z,61.73
2018-02-02T00:50:29.421Z,60.37
2018-02-02T00:52:57.929Z,61.83
2018-02-02T00:55:26.439Z,56.60
2018-02-02T00:57:54.898Z,56.90
2018-02-02T01:00:23.390Z,56.40
2018-02-02T01:02:51.885Z,56.73
2018-02-02T01:05:20.361Z,54.93
2018-02-02T01:07:48.814Z,54.27
2018-02-02T01:10:17.323Z,52.23
2018-02-02T01:12:45.841Z,49.93
2018-02-02T01:15:14.320Z,49.77
2018-02-02T01:17:42.778Z,49.07
2018-02-02T01:20:11.273Z,49.00
2018-02-02T01:22:39.811Z,50.27
2018-02-02T01:25:08.289Z,52.13
2018-02-02T01:27:36.770Z,51.07
2018-02-02T01:30:05.286Z,51.23
2018-02-02T01:32:33.788Z,54.43
2018-02-02T01:35:02.256Z,56.70
2018-02-02T01:37:30.764Z,56.80
2018-02-02T01:39:59.285Z,56.13
2018-02-02T01:42:27.741Z,53.30
2018-02-02T01:44:56.210Z,51.93
2018-02-02T01:47:24.717Z,49.67
2018-02-02T01:49:53.178Z,52.47
2018-02-02T01:52:21.677Z,51.03
2018-02-02T01:54:50.186Z,52.47
2018-02-02T01:57:18.685Z,51.77
2018-02-02T01:59:47.180Z,50.17
2018-02-02T02:02:15.669Z,49.90
2018-02-02T02:04:44.125Z,48.90
2018-02-02T02:07:12.626Z,50.03
2018-02-02T02:09:41.086Z,51.53
2018-02-02T02:12:09.586Z,52.20
2018-02-02T02:14:38.090Z,52.03
2018-02-02T02:17:06.621Z,53.70
2018-02-02T02:19:35.085Z,51.23
2018-02-02T02:22:03.535Z,52.83
2018-02-02T02:24:32.023Z,51.17
2018-02-02T02:27:00.470Z,53.60
2018-02-02T02:29:29.016Z,51.83
2018-02-02T02:31:57.553Z,50.67
2018-02-02T02:34:26.057Z,50.67
2018-02-02T02:36:54.530Z,50.73
2018-02-02T02:39:22.998Z,50.60
2018-02-02T02:41:51.518Z,53.80
2018-02-02T02:44:19.982Z,52.67
2018-02-02T02:46:48.478Z,53.50
2018-02-02T02:49:16.969Z,53.53
2018-02-02T02:51:45.426Z,54.10
2018-02-02T02:54:13.918Z,51.30
2018-02-02T02:56:42.369Z,52.80
2018-02-02T02:59:10.861Z,52.03
2018-02-02T03:01:39.353Z,53.17
2018-02-02T03:04:07.850Z,50.97
2018-02-02T03:06:36.354Z,53.33
2018-02-02T03:09:04.978Z,53.33
2018-02-02T03:11:33.433Z,51.30
2018-02-02T03:14:01.952Z,53.20
2018-02-02T03:16:30.418Z,53.27
2018-02-02T03:18:58.926Z,53.33
2018-02-02T03:21:27.403Z,51.73
2018-02-02T03:23:55.905Z,53.00
2018-02-02T03:26:24.405Z,55.70
2018-02-02T03:28:52.892Z,56.30
2018-02-02T03:31:21.416Z,55.13
2018-02-02T03:33:49.909Z,55.63
2018-02-02T03:36:18.369Z,58.07
2018-02-02T03:38:46.882Z,60.37
2018-02-02T03:41:15.337Z,60.07
2018-02-02T03:43:43.829Z,58.13
2018-02-02T03:46:12.281Z,59.30
2018-02-02T03:48:40.749Z,57.97
2018-02-02T03:51:09.209Z,58.87
2018-02-02T03:53:37.725Z,59.87
2018-02-02T03:56:06.191Z,58.73
2018-02-02T03:58:34.651Z,59.70
2018-02-02T04:01:03.144Z,61.53
2018-02-02T04:03:31.609Z,60.73
2018-02-02T04:06:00.104Z,62.53
2018-02-02T04:08:28.569Z,61.13
2018-02-02T04:10:57.073Z,60.83
2018-02-02T04:13:25.569Z,61.73
2018-02-02T04:15:54.025Z,64.83
2018-02-02T04:18:22.512Z,63.27
2018-02-02T04:20:50.981Z,61.30
2018-02-02T04:23:19.488Z,66.50
2018-02-02T04:25:47.944Z,62.93
2018-02-02T04:28:16.458Z,64.23
2018-02-02T04:30:44.907Z,65.87
2018-02-02T04:33:13.353Z,64.97
2018-02-02T04:35:42.041Z,66.60
2018-02-02T04:38:10.537Z,67.97
2018-02-02T04:40:38.999Z,70.87
2018-02-02T04:43:07.522Z,77.40
2018-02-02T04:45:35.995Z,85.50
2018-02-02T04:48:04.509Z,92.10
2018-02-02T04:50:32.976Z,84.30
2018-02-02T04:53:01.465Z,81.53
2018-02-02T04:55:29.935Z,76.63
2018-02-02T04:57:58.429Z,71.90
2018-02-02T05:00:26.881Z,74.00
2018-02-02T05:02:55.378Z,77.77
2018-02-02T05:05:23.882Z,81.73
2018-02-02T05:07:52.370Z,103.30
2018-02-02T05:10:20.837Z,87.40
2018-02-02T05:12:49.373Z,86.00
2018-02-02T05:15:17.833Z,78.07
2018-02-02T05:17:46.325Z,78.57
2018-02-02T05:20:14.821Z,83.03
2018-02-02T05:22:43.325Z,91.57
2018-02-02T05:25:11.781Z,91.57
2018-02-02T05:27:40.283Z,88.87
2018-02-02T05:30:08.781Z,89.77
2018-02-02T05:32:37.242Z,86.17
2018-02-02T05:35:05.709Z,77.93
2018-02-02T05:37:34.213Z,77.43
2018-02-02T05:40:02.715Z,76.20
2018-02-02T05:42:31.218Z,72.03
2018-02-02T05:44:59.773Z,71.00
2018-02-02T05:47:28.229Z,72.00
2018-02-02T05:49:56.678Z,72.53
2018-02-02T05:52:25.220Z,68.57
2018-02-02T05:54:53.673Z,64.30
2018-02-02T05:57:22.169Z,66.40
2018-02-02T05:59:50.630Z,60.63
2018-02-02T06:02:19.179Z,60.50
2018-02-02T06:04:47.637Z,60.23
2018-02-02T06:07:16.178Z,60.23
2018-02-02T06:09:44.682Z,63.07
2018-02-02T06:12:13.173Z,61.27
2018-02-02T06:14:41.633Z,61.93
2018-02-02T06:17:10.122Z,59.77
2018-02-02T06:19:38.647Z,58.37
2018-02-02T06:22:07.205Z,62.43
2018-02-02T06:24:35.677Z,64.83
2018-02-02T06:27:04.172Z,63.63
2018-02-02T06:29:32.666Z,61.97
2018-02-02T06:32:01.137Z,62.17
2018-02-02T06:34:29.654Z,63.57
2018-02-02T06:37:04.642Z,64.10
2018-02-02T06:39:33.156Z,66.63
2018-02-02T06:42:01.650Z,63.60
2018-02-02T06:44:30.145Z,66.60
2018-02-02T06:46:58.588Z,63.57
2018-02-02T06:49:27.099Z,64.70
2018-02-02T06:51:55.569Z,64.90
2018-02-02T06:54:24.077Z,59.00
2018-02-02T06:56:52.547Z,69.80
2018-02-02T06:59:21.069Z,71.20
2018-02-02T07:01:49.544Z,72.20
2018-02-02T07:04:18.962Z,71.50
2018-02-02T07:06:47.446Z,70.53
2018-02-02T07:09:15.909Z,80.30
2018-02-02T07:11:44.422Z,93.77
2018-02-02T07:14:12.891Z,102.43
2018-02-02T07:16:41.402Z,118.67
2018-02-02T07:19:09.954Z,109.60
2018-02-02T07:21:38.432Z,99.33
2018-02-02T07:24:06.949Z,93.17
2018-02-02T07:26:35.428Z,84.23
2018-02-02T07:29:03.913Z,74.33
2018-02-02T07:31:32.451Z,79.00
2018-02-02T07:34:00.923Z,79.53
2018-02-02T07:36:29.462Z,78.83
2018-02-02T07:38:57.938Z,77.13
2018-02-02T07:41:26.449Z,78.93
2018-02-02T07:43:54.926Z,80.03
2018-02-02T07:46:23.418Z,83.53
2018-02-02T07:48:51.902Z,82.63
2018-02-02T07:51:20.450Z,83.47
2018-02-02T07:53:48.999Z,79.83
2018-02-02T07:56:17.478Z,85.33
2018-02-02T07:58:46.014Z,87.33
2018-02-02T08:01:20.053Z,86.67
2018-02-02T08:03:48.585Z,84.43
2018-02-02T08:06:17.081Z,88.70
2018-02-02T08:08:45.607Z,94.70
2018-02-02T08:11:14.109Z,94.60
2018-02-02T08:13:42.590Z,95.57
2018-02-02T08:16:11.093Z,91.77
2018-02-02T08:18:39.554Z,91.97
2018-02-02T08:21:08.066Z,89.33
2018-02-02T08:23:36.537Z,89.33
2018-02-02T08:26:05.053Z,83.97
2018-02-02T08:28:33.586Z,76.30
2018-02-02T08:31:02.093Z,79.20
2018-02-02T08:33:30.593Z,82.80
2018-02-02T08:35:59.070Z,84.20
2018-02-02T08:38:27.538Z,88.60
2018-02-02T08:40:56.073Z,87.90
2018-02-02T08:43:24.541Z,89.60
2018-02-02T08:45:53.133Z,91.70
2018-02-02T08:48:21.675Z,81.73
2018-02-02T08:50:50.153Z,83.97
2018-02-02T08:53:18.617Z,84.13
2018-02-02T08:55:47.145Z,80.33
2018-02-02T08:58:15.697Z,78.63
2018-02-02T09:00:49.702Z,63.93
2018-02-02T09:03:18.201Z,62.83
2018-02-02T09:05:46.760Z,55.53
2018-02-02T09:08:15.225Z,53.43
2018-02-02T09:10:43.741Z,52.30
2018-02-02T09:13:12.219Z,64.73
2018-02-02T09:15:40.701Z,64.70
2018-02-02T09:18:09.202Z,68.97
2018-02-02T09:20:37.669Z,68.37
2018-02-02T09:23:06.139Z,69.37
2018-02-02T09:25:34.642Z,67.07
2018-02-02T09:28:02.586Z,67.70
2018-02-02T09:30:31.108Z,67.77
2018-02-02T09:32:59.605Z,65.83
2018-02-02T09:35:28.125Z,79.60
2018-02-02T09:37:56.694Z,86.03
2018-02-02T09:40:25.250Z,85.30
2018-02-02T09:42:53.772Z,74.60
2018-02-02T09:45:22.241Z,82.40
2018-02-02T09:47:51.558Z,86.60
2018-02-02T09:50:20.074Z,89.27
2018-02-02T09:52:48.683Z,87.43
2018-02-02T09:55:17.148Z,85.27
2018-02-02T09:57:45.661Z,83.07
2018-02-02T10:00:14.177Z,77.60
2018-02-02T10:02:42.686Z,76.63
2018-02-02T10:05:11.205Z,78.33
2018-02-02T10:07:39.713Z,81.40
2018-02-02T10:10:08.221Z,81.07
2018-02-02T10:12:36.685Z,73.17
2018-02-02T10:15:05.185Z,65.60
2018-02-02T10:17:33.670Z,65.83
2018-02-02T10:20:02.185Z,64.20
2018-02-02T10:22:30.649Z,64.77
2018-02-02T10:24:59.154Z,54.00
2018-02-02T10:27:27.623Z,52.20
2018-02-02T10:29:56.103Z,50.87
2018-02-02T10:32:24.557Z,49.50
2018-02-02T10:34:53.069Z,47.47
2018-02-02T10:37:21.534Z,47.00
2018-02-02T10:39:50.054Z,43.30
2018-02-02T10:42:18.532Z,43.63
2018-02-02T10:44:47.001Z,43.13
2018-02-02T10:47:15.526Z,42.00
2018-02-02T10:49:44.037Z,43.43
2018-02-02T10:52:12.510Z,42.50
2018-02-02T10:54:41.024Z,43.67
2018-02-02T10:57:09.550Z,47.33
2018-02-02T10:59:38.022Z,47.83
2018-02-02T11:02:11.889Z,50.17
2018-02-02T11:04:40.390Z,49.20
2018-02-02T11:07:08.883Z,51.77
2018-02-02T11:09:37.346Z,51.73
2018-02-02T11:12:05.917Z,51.83
2018-02-02T11:14:34.378Z,51.50
2018-02-02T11:17:02.895Z,52.13
2018-02-02T11:19:31.363Z,52.70
2018-02-02T11:21:59.865Z,50.70
2018-02-02T11:24:28.385Z,54.80
2018-02-02T11:26:56.893Z,53.63
2018-02-02T11:29:25.397Z,50.53
2018-02-02T11:31:53.892Z,51.10
2018-02-02T11:34:22.417Z,48.97
2018-02-02T11:36:50.883Z,48.60
2018-02-02T11:39:19.323Z,47.93
2018-02-02T11:41:47.819Z,50.90
2018-02-02T11:44:16.330Z,47.63
2018-02-02T11:46:44.845Z,45.47
2018-02-02T11:49:13.346Z,48.53
2018-02-02T11:51:41.851Z,48.83
2018-02-02T11:54:10.321Z,50.33
2018-02-02T11:56:38.822Z,51.00
2018-02-02T11:59:07.263Z,50.97
2018-02-02T12:01:35.809Z,50.20
2018-02-02T12:04:04.279Z,48.03
2018-02-02T12:06:32.788Z,49.23
2018-02-02T12:09:01.308Z,48.20
2018-02-02T12:11:29.822Z,46.13
2018-02-02T12:13:58.327Z,44.93
2018-02-02T12:16:26.841Z,47.13
2018-02-02T12:18:55.384Z,45.63
2018-02-02T12:21:23.937Z,44.70
2018-02-02T12:24:02.918Z,44.40
2018-02-02T12:29:39.034Z,39.60
2018-02-02T12:35:22.177Z,38.10
2018-02-02T12:37:50.788Z,38.50
2018-02-02T12:40:19.379Z,42.10
2018-02-02T12:42:47.910Z,40.43
2018-02-02T12:45:16.448Z,41.17
2018-02-02T12:47:56.733Z,37.63
2018-02-02T12:50:25.254Z,37.40
2018-02-02T12:52:53.878Z,38.33
2018-02-02T12:55:22.390Z,40.90
2018-02-02T12:57:51.597Z,40.50
2018-02-02T13:00:20.119Z,43.53
2018-02-02T13:02:48.585Z,45.97
2018-02-02T13:05:17.058Z,45.57
2018-02-02T13:07:45.571Z,44.27
2018-02-02T13:10:14.075Z,36.53
2018-02-02T13:12:42.582Z,36.77
2018-02-02T13:15:11.085Z,37.53
2018-02-02T13:17:39.557Z,34.90
2018-02-02T13:20:08.113Z,37.50
2018-02-02T13:22:36.801Z,34.57
2018-02-02T13:25:05.333Z,34.80
2018-02-02T13:27:33.840Z,33.67
2018-02-02T13:30:02.282Z,34.20
2018-02-02T13:32:30.860Z,34.93
2018-02-02T13:34:59.345Z,32.13
2018-02-02T13:37:27.873Z,31.00
2018-02-02T13:39:56.393Z,34.57
2018-02-02T13:42:24.905Z,32.77
2018-02-02T13:44:53.447Z,33.57
2018-02-02T13:47:21.959Z,34.20
2018-02-02T13:49:50.470Z,31.10
2018-02-02T13:52:18.945Z,33.07
2018-02-02T13:54:47.482Z,34.17
2018-02-02T13:57:15.995Z,34.43
2018-02-02T13:59:44.453Z,32.60
2018-02-02T14:02:12.966Z,33.23
2018-02-02T14:04:41.431Z,37.03
2018-02-02T14:07:09.930Z,35.23
2018-02-02T14:09:38.401Z,35.73
2018-02-02T14:12:06.910Z,34.87
2018-02-02T14:14:35.373Z,33.50
2018-02-02T14:17:03.878Z,33.47
2018-02-02T14:19:32.386Z,34.83
2018-02-02T14:22:00.904Z,32.77
2018-02-02T14:24:29.422Z,33.53
2018-02-02T14:26:57.929Z,34.60
2018-02-02T14:29:26.390Z,37.27
2018-02-02T14:31:54.858Z,39.97
2018-02-02T14:34:23.381Z,39.90
2018-02-02T14:36:51.885Z,38.73
2018-02-02T14:39:20.353Z,40.57
2018-02-02T14:41:48.865Z,40.33
2018-02-02T14:44:17.341Z,41.43
2018-02-02T14:46:45.806Z,40.70
2018-02-02T14:49:14.313Z,40.60
2018-02-02T14:51:42.786Z,41.00
2018-02-02T14:54:11.292Z,40.03
2018-02-02T14:56:39.797Z,42.20
2018-02-02T14:59:08.352Z,42.50
2018-02-02T15:01:36.829Z,43.97
2018-02-02T15:04:05.403Z,42.10
2018-02-02T15:06:33.858Z,43.80
2018-02-02T15:09:02.322Z,43.67
2018-02-02T15:11:30.837Z,46.53
2018-02-02T15:13:59.343Z,43.80
2018-02-02T15:16:27.837Z,42.30
2018-02-02T15:18:56.354Z,39.77
2018-02-02T15:21:25.029Z,42.10
2018-02-02T15:23:53.577Z,43.70
2018-02-02T15:26:22.153Z,42.63
2018-02-02T15:28:50.710Z,42.23
2018-02-02T15:31:19.180Z,44.53
2018-02-02T15:33:47.646Z,44.27
2018-02-02T15:36:16.173Z,42.17
2018-02-02T15:38:44.690Z,41.70
2018-02-02T15:41:13.150Z,41.37
2018-02-02T15:43:41.599Z,42.07
2018-02-02T15:46:10.153Z,42.60
2018-02-02T15:48:38.650Z,40.93
2018-02-02T15:51:07.193Z,43.20
2018-02-02T15:53:35.698Z,44.10
2018-02-02T15:56:04.288Z,43.23
2018-02-02T15:58:32.762Z,44.50
2018-02-02T16:01:01.321Z,45.60
2018-02-02T16:03:29.764Z,43.67
2018-02-02T16:05:58.300Z,44.30
2018-02-02T16:08:27.025Z,41.37
2018-02-02T16:10:55.527Z,42.13
2018-02-02T16:13:24.018Z,42.67
2018-02-02T16:15:52.509Z,42.07
2018-02-02T16:18:21.004Z,44.40
2018-02-02T16:20:49.511Z,40.90
2018-02-02T16:23:17.979Z,43.03
2018-02-02T16:25:46.504Z,38.90
2018-02-02T16:28:14.966Z,39.13
2018-02-02T16:30:43.482Z,37.17
2018-02-02T16:33:11.942Z,44.57
2018-02-02T16:35:40.450Z,43.60
2018-02-02T16:38:08.949Z,43.90
2018-02-02T16:40:37.419Z,43.63
2018-02-02T16:43:05.944Z,45.53
2018-02-02T16:45:34.445Z,47.03
2018-02-02T16:48:02.908Z,46.63
2018-02-02T16:50:31.445Z,44.53
2018-02-02T16:52:59.970Z,45.77
2018-02-02T16:55:28.486Z,42.80
2018-02-02T16:57:56.994Z,43.23
2018-02-02T17:00:26.353Z,45.77
2018-02-02T17:02:54.854Z,46.43
2018-02-02T17:05:23.369Z,45.23
2018-02-02T17:07:51.896Z,44.83
2018-02-02T17:10:20.429Z,44.43
2018-02-02T17:12:48.938Z,46.50
2018-02-02T17:15:17.437Z,45.93
2018-02-02T17:17:45.937Z,39.90
2018-02-02T17:20:14.405Z,43.17
2018-02-02T17:22:42.910Z,43.93
2018-02-02T17:25:11.373Z,46.37
2018-02-02T17:27:39.882Z,44.10
2018-02-02T17:30:08.326Z,43.97
2018-02-02T17:32:36.790Z,41.73
2018-02-02T17:35:05.289Z,38.87
2018-02-02T17:37:33.749Z,40.47
2018-02-02T17:40:02.242Z,52.97
2018-02-02T17:42:30.749Z,43.47
2018-02-02T17:44:59.209Z,45.63
2018-02-02T17:47:27.672Z,58.37
2018-02-02T17:49:56.191Z,42.83
2018-02-02T17:52:24.702Z,63.90
2018-02-02T17:54:53.188Z,43.53
2018-02-02T17:57:21.688Z,46.30
2018-02-02T17:59:50.238Z,51.60
2018-02-02T18:02:18.764Z,55.83
2018-02-02T18:04:47.257Z,64.40
2018-02-02T18:07:15.794Z,73.03
2018-02-02T18:09:44.910Z,89.07
2018-02-02T18:12:13.409Z,93.23
2018-02-02T18:14:41.949Z,93.17
2018-02-02T18:17:10.430Z,95.97
2018-02-02T18:19:38.942Z,92.73
2018-02-02T18:22:07.459Z,96.17
2018-02-02T18:24:35.930Z,93.23
2018-02-02T18:27:04.430Z,93.43
2018-02-02T18:29:32.894Z,91.57
2018-02-02T18:32:01.406Z,84.47
2018-02-02T18:34:29.966Z,88.90
2018-02-02T18:36:58.459Z,82.50
2018-02-02T18:39:26.958Z,75.87
2018-02-02T18:41:55.502Z,64.63
2018-02-02T18:44:24.010Z,69.00
2018-02-02T18:46:52.481Z,68.03
2018-02-02T18:49:21.007Z,60.47
2018-02-02T18:51:49.486Z,56.13
2018-02-02T18:54:17.995Z,53.03
2018-02-02T18:56:46.473Z,57.60
2018-02-02T18:59:14.978Z,60.47
2018-02-02T19:01:43.445Z,59.93
2018-02-02T19:04:11.932Z,56.13
2018-02-02T19:06:40.394Z,54.73
2018-02-02T19:09:08.934Z,55.80
2018-02-02T19:11:37.433Z,54.23
2018-02-02T19:14:05.958Z,55.03
2018-02-02T19:16:34.460Z,58.90
2018-02-02T19:19:02.961Z,57.03
2018-02-02T19:21:31.484Z,56.97
2018-02-02T19:23:59.945Z,55.67
2018-02-02T19:26:28.405Z,54.13
2018-02-02T19:28:56.901Z,54.83
2018-02-02T19:31:25.366Z,54.97
2018-02-02T19:33:53.902Z,54.77
2018-02-02T19:36:22.384Z,55.60
2018-02-02T19:38:50.894Z,58.60
2018-02-02T19:41:19.365Z,57.13
2018-02-02T19:43:47.887Z,57.10
2018-02-02T19:46:16.373Z,58.53
2018-02-02T19:48:44.841Z,57.87
2018-02-02T19:51:13.333Z,56.87
2018-02-02T19:53:41.837Z,56.83
2018-02-02T19:56:10.322Z,54.93
2018-02-02T19:58:38.818Z,57.63
2018-02-02T20:01:07.314Z,55.23
2018-02-02T20:03:36.671Z,55.30
2018-02-02T20:06:05.134Z,54.57
2018-02-02T20:08:33.605Z,56.30
2018-02-02T20:11:02.109Z,53.40
2018-02-02T20:13:30.579Z,54.03
2018-02-02T20:15:59.103Z,55.90
2018-02-02T20:18:27.547Z,57.47
2018-02-02T20:20:56.045Z,55.33
2018-02-02T20:23:24.537Z,57.80
2018-02-02T20:25:52.997Z,57.60
2018-02-02T20:28:21.498Z,59.40
2018-02-02T20:30:49.981Z,56.47
2018-02-02T20:33:18.481Z,58.43
2018-02-02T20:35:46.955Z,59.20
2018-02-02T20:38:15.497Z,57.80
2018-02-02T20:40:43.969Z,59.83
2018-02-02T20:43:12.484Z,60.43
2018-02-02T20:45:41.029Z,63.03
2018-02-02T20:48:09.504Z,60.63
2018-02-02T20:50:38.013Z,58.87
2018-02-02T20:53:06.541Z,81.17
2018-02-02T20:55:35.030Z,84.37
2018-02-02T20:58:03.544Z,67.43
2018-02-02T21:00:31.994Z,62.00
2018-02-02T21:03:00.565Z,67.03
2018-02-02T21:05:29.106Z,64.27
2018-02-02T21:07:57.602Z,64.50
2018-02-02T21:10:26.117Z,63.20
2018-02-02T21:12:54.571Z,63.97
2018-02-02T21:15:23.074Z,65.83
2018-02-02T21:17:51.890Z,77.30
2018-02-02T21:20:20.358Z,68.07
2018-02-02T21:22:48.863Z,69.03
2018-02-02T21:25:17.340Z,63.93
2018-02-02T21:27:45.842Z,66.23
2018-02-02T21:30:14.332Z,65.17
2018-02-02T21:32:42.814Z,64.97
2018-02-02T21:35:11.305Z,61.83
2018-02-02T21:37:39.792Z,66.97
2018-02-02T21:40:08.297Z,67.67
2018-02-02T21:42:36.768Z,68.27
2018-02-02T21:45:05.236Z,67.70
2018-02-02T21:47:33.781Z,68.50
2018-02-02T21:50:02.242Z,69.97
2018-02-02T21:52:30.774Z,72.13
2018-02-02T21:54:59.262Z,74.03
2018-02-02T21:57:27.803Z,68.80
2018-02-02T21:59:56.297Z,69.53
2018-02-02T22:02:24.764Z,71.60
2018-02-02T22:04:53.273Z,74.70
2018-02-02T22:07:21.729Z,72.50
2018-02-02T22:09:50.207Z,68.80
2018-02-02T22:12:18.705Z,73.53
2018-02-02T22:14:47.198Z,72.17
2018-02-02T22:17:15.686Z,72.73
2018-02-02T22:19:44.133Z,70.43
2018-02-02T22:22:12.585Z,73.37
2018-02-02T22:24:41.037Z,72.73
2018-02-02T22:27:09.558Z,70.00
2018-02-02T22:29:38.008Z,69.83
2018-02-02T22:32:06.464Z,71.20
2018-02-02T22:34:34.861Z,70.20
2018-02-02T22:37:03.344Z,66.73
2018-02-02T22:39:31.736Z,68.70
2018-02-02T22:42:00.153Z,70.60
2018-02-02T22:44:28.593Z,67.60
2018-02-02T22:46:57.016Z,66.80
2018-02-02T22:49:25.464Z,70.07
2018-02-02T22:51:53.876Z,64.20
2018-02-02T22:54:22.398Z,63.97
2018-02-02T22:56:50.796Z,66.80
2018-02-02T22:59:19.222Z,64.37
2018-02-02T23:01:47.688Z,63.53
2018-02-02T23:04:16.125Z,66.10
2018-02-02T23:06:44.552Z,63.60
2018-02-02T23:09:13.017Z,64.43
2018-02-02T23:11:41.412Z,65.90
2018-02-02T23:14:09.868Z,63.70
2018-02-02T23:16:38.265Z,66.13
2018-02-02T23:19:06.711Z,64.97
2018-02-02T23:21:35.148Z,64.87
2018-02-02T23:24:03.553Z,65.10
2018-02-02T23:26:32.021Z,68.13
2018-02-02T23:29:00.452Z,81.37
2018-02-02T23:31:28.845Z,67.17
2018-02-02T23:33:57.289Z,67.67
2018-02-02T23:36:25.715Z,69.53
2018-02-02T23:38:54.153Z,71.67
2018-02-02T23:41:22.576Z,66.77
2018-02-02T23:43:50.985Z,70.30
2018-02-02T23:46:19.422Z,72.40
2018-02-02T23:48:47.834Z,72.93
2018-02-02T23:51:16.310Z,71.47
2018-02-02T23:53:44.709Z,71.30
2018-02-02T23:56:13.145Z,71.83
2018-02-02T23:58:41.584Z,67.90
